Time;durP1;ratioP1;P1;durP2;ratioP2;P2;SDS_P1;SDS_P2;PMS_P1;PMS_P2;Temp;Humidity;BMP_temperature;BMP_pressure;BME280_temperature;BME280_humidity;BME280_pressure;Samples;Min_cycle;Max_cycle;Signal;HPM_P1;HPM_P2
2022/09/02 00:01:16;;;;;;;11.02;8.77;;;;;;;25.37;55.22;94632.97;4995735;28;20140;-62
2022/09/02 00:03:42;;;;;;;9.52;8.18;;;;;;;25.29;55.59;94632.16;4983596;28;20034;-62
2022/09/02 00:06:08;;;;;;;11.43;8.38;;;;;;;25.19;55.96;94627.66;4985871;28;20038;-61
2022/09/02 00:08:33;;;;;;;11.45;8.77;;;;;;;25.10;55.39;94598.78;4986522;28;20129;-62
2022/09/02 00:11:05;;;;;;;9.68;8.15;;;;;;;24.79;55.91;94573.63;5001639;28;20558;-61
2022/09/02 00:13:31;;;;;;;10.23;8.80;;;;;;;25.22;55.64;94619.13;5000563;28;20680;-61
2022/09/02 00:15:57;;;;;;;10.77;8.65;;;;;;;25.05;55.78;94590.69;4991559;28;20038;-60
2022/09/02 00:18:25;;;;;;;11.30;9.07;;;;;;;25.09;55.86;94610.97;4995952;28;20051;-61
2022/09/02 00:20:50;;;;;;;12.20;9.30;;;;;;;25.10;55.90;94601.53;4992208;28;20097;-61
2022/09/02 00:23:16;;;;;;;12.73;8.50;;;;;;;24.98;55.75;94585.88;4995962;28;20030;-61
2022/09/02 00:25:43;;;;;;;9.90;8.88;;;;;;;24.85;56.37;94600.28;4998719;28;20526;-60
2022/09/02 00:28:09;;;;;;;13.32;9.38;;;;;;;24.67;56.05;94577.84;4989734;28;20632;-61
2022/09/02 00:30:34;;;;;;;12.45;9.07;;;;;;;25.15;56.35;94647.09;4999607;28;20022;-61
2022/09/02 00:33:00;;;;;;;11.48;8.85;;;;;;;24.69;56.44;94597.16;5000662;28;20038;-60
2022/09/02 00:35:28;;;;;;;12.90;8.98;;;;;;;25.17;55.71;94641.88;4994183;28;20058;-60
2022/09/02 00:37:53;;;;;;;11.27;9.57;;;;;;;25.17;56.41;94658.25;4991948;28;20049;-61
2022/09/02 00:40:19;;;;;;;12.57;9.23;;;;;;;25.23;56.19;94656.16;5001278;28;20026;-60
2022/09/02 00:42:45;;;;;;;11.50;8.80;;;;;;;25.08;56.33;94661.44;4989325;28;20137;-61
2022/09/02 00:45:11;;;;;;;10.95;8.63;;;;;;;24.65;56.07;94578.38;4998329;28;20038;-60
2022/09/02 00:47:37;;;;;;;11.07;9.23;;;;;;;24.55;55.98;94560.97;4987603;28;20070;-60
2022/09/02 00:50:05;;;;;;;11.38;8.95;;;;;;;24.24;56.00;94514.69;5002396;28;20046;-60
2022/09/02 00:52:33;;;;;;;10.70;8.75;;;;;;;25.01;55.95;94634.75;5004924;28;20121;-60
2022/09/02 00:55:11;;;;;;;11.82;9.68;;;;;;;24.86;56.23;94629.06;4999180;28;20498;-60
2022/09/02 00:57:48;;;;;;;12.43;9.55;;;;;;;24.57;56.06;94590.47;4975078;28;20089;-61
2022/09/02 01:00:16;;;;;;;11.50;9.27;;;;;;;24.70;55.42;94587.72;4993384;28;20038;-62
2022/09/02 01:02:43;;;;;;;12.80;9.02;;;;;;;24.74;56.30;94609.97;5004707;28;20418;-61
2022/09/02 01:05:10;;;;;;;11.57;9.40;;;;;;;24.82;56.41;94634.13;5003337;28;20125;-61
2022/09/02 01:07:39;;;;;;;10.85;9.38;;;;;;;24.36;55.93;94554.16;4991561;28;20038;-62
2022/09/02 01:10:07;;;;;;;10.65;8.88;;;;;;;24.81;55.56;94598.41;5003017;28;20025;-61
2022/09/02 01:12:34;;;;;;;10.65;8.85;;;;;;;25.17;55.85;94668.44;5005672;28;20271;-61
2022/09/02 01:15:01;;;;;;;11.63;9.07;;;;;;;25.13;56.09;94668.78;4988553;28;20493;-61
2022/09/02 01:17:27;;;;;;;10.38;8.90;;;;;;;25.12;55.51;94655.63;4988571;28;20101;-61
2022/09/02 01:19:56;;;;;;;11.05;9.80;;;;;;;24.34;56.29;94600.34;5000571;28;20069;-61
2022/09/02 01:22:24;;;;;;;14.05;9.32;;;;;;;24.57;55.66;94585.00;4987163;28;20498;-61
2022/09/02 01:24:50;;;;;;;16.17;9.82;;;;;;;25.12;56.10;94675.50;5003797;28;20707;-61
2022/09/02 01:27:16;;;;;;;12.18;9.20;;;;;;;25.26;55.85;94676.19;5003309;28;20049;-61
2022/09/02 01:29:42;;;;;;;9.93;8.73;;;;;;;24.60;56.01;94578.50;5004873;28;20526;-61
2022/09/02 01:32:07;;;;;;;9.75;8.63;;;;;;;25.14;55.67;94658.56;5003828;28;20038;-61
2022/09/02 01:34:33;;;;;;;12.18;9.20;;;;;;;24.91;55.72;94609.09;5002930;28;20658;-60
2022/09/02 01:36:59;;;;;;;9.68;8.43;;;;;;;24.92;55.89;94610.56;4997150;28;20446;-61
2022/09/02 01:39:24;;;;;;;10.27;8.32;;;;;;;24.69;55.50;94554.19;4988903;28;20510;-61
2022/09/02 01:41:51;;;;;;;9.48;7.63;;;;;;;25.09;55.50;94624.63;4992879;28;20421;-62
2022/09/02 01:44:17;;;;;;;7.63;6.88;;;;;;;25.18;55.35;94616.00;4974135;28;20066;-61
2022/09/02 01:46:43;;;;;;;8.70;7.38;;;;;;;25.20;55.92;94632.59;4992304;28;20124;-62
2022/09/02 01:49:09;;;;;;;8.48;6.60;;;;;;;25.23;55.75;94612.41;5004894;28;20728;-62
2022/09/02 01:51:35;;;;;;;8.10;5.82;;;;;;;25.12;55.99;94603.72;4984799;28;20113;-62
2022/09/02 01:54:00;;;;;;;7.22;5.60;;;;;;;25.08;55.98;94595.84;5000047;28;20042;-61
2022/09/02 01:56:26;;;;;;;8.23;4.97;;;;;;;24.93;55.72;94567.59;4996837;28;20441;-65
2022/09/02 01:58:52;;;;;;;6.80;4.53;;;;;;;25.08;55.38;94589.63;4997538;28;20042;-61
2022/09/02 02:01:17;;;;;;;5.32;4.00;;;;;;;25.05;55.23;94596.16;4992604;28;20590;-63
2022/09/02 02:03:43;;;;;;;4.43;3.55;;;;;;;24.98;55.18;94583.88;4994318;28;20037;-62
2022/09/02 02:06:10;;;;;;;4.10;3.30;;;;;;;24.78;55.35;94566.69;5000645;28;20076;-64
2022/09/02 02:08:37;;;;;;;4.10;3.50;;;;;;;24.31;54.87;94486.75;4993531;28;20046;-62
2022/09/02 02:11:03;;;;;;;5.28;3.50;;;;;;;24.81;55.18;94566.34;4997221;28;20692;-63
2022/09/02 02:13:29;;;;;;;4.05;3.00;;;;;;;24.40;54.45;94500.72;5001387;28;20079;-62
2022/09/02 02:15:55;;;;;;;3.20;2.83;;;;;;;24.98;54.88;94596.81;5004866;28;20038;-61
2022/09/02 02:18:21;;;;;;;4.22;3.38;;;;;;;24.59;54.36;94552.47;5005986;28;20049;-62
2022/09/02 02:20:46;;;;;;;3.55;2.78;;;;;;;24.43;54.41;94537.88;5006276;28;20038;-62
2022/09/02 02:23:12;;;;;;;3.95;2.92;;;;;;;24.40;54.43;94527.28;5004986;28;20038;-63
2022/09/02 02:25:38;;;;;;;4.40;2.90;;;;;;;24.75;54.45;94552.09;5019558;28;20136;-62
2022/09/02 02:28:03;;;;;;;3.58;3.15;;;;;;;24.93;54.22;94582.00;4996851;28;20053;-62
2022/09/02 02:30:29;;;;;;;3.42;3.05;;;;;;;24.32;54.36;94526.44;5018952;28;20656;-62
2022/09/02 02:32:55;;;;;;;4.05;2.45;;;;;;;24.46;54.93;94549.75;5023213;28;20033;-61
2022/09/02 02:35:21;;;;;;;3.50;3.20;;;;;;;24.29;55.14;94538.41;4991250;28;20049;-62
2022/09/02 02:37:48;;;;;;;3.70;2.72;;;;;;;24.39;54.99;94539.47;5008408;28;20054;-62
2022/09/02 02:40:14;;;;;;;4.55;2.95;;;;;;;24.86;55.05;94612.69;4986761;28;20034;-62
2022/09/02 02:42:40;;;;;;;4.85;3.20;;;;;;;24.95;54.68;94620.44;5022367;28;20502;-61
2022/09/02 02:45:11;;;;;;;4.90;3.03;;;;;;;24.93;54.76;94622.97;5041918;22;21059;-60
2022/09/02 02:47:40;;;;;;;4.30;3.00;;;;;;;24.61;54.54;94571.78;5021487;28;20052;-61
2022/09/02 02:50:09;;;;;;;5.43;3.20;;;;;;;24.92;54.60;94621.50;5021948;28;20121;-60
2022/09/02 02:52:35;;;;;;;3.97;3.10;;;;;;;24.32;55.02;94542.06;4978789;28;20042;-60
2022/09/02 02:55:01;;;;;;;3.20;2.50;;;;;;;24.77;54.75;94601.47;4993846;28;20033;-61
2022/09/02 02:57:28;;;;;;;3.50;2.80;;;;;;;24.84;55.01;94609.00;4959243;28;20056;-60
2022/09/02 02:59:53;;;;;;;4.90;3.20;;;;;;;24.63;54.28;94561.06;4993754;28;20049;-61
2022/09/02 03:02:19;;;;;;;4.55;3.10;;;;;;;24.15;54.43;94493.28;4993254;28;20437;-60
2022/09/02 03:04:45;;;;;;;5.00;3.10;;;;;;;24.94;54.56;94627.16;4992896;28;20056;-60
2022/09/02 03:07:11;;;;;;;4.60;3.38;;;;;;;24.95;54.89;94620.44;4992380;28;20037;-60
2022/09/02 03:09:36;;;;;;;4.68;3.20;;;;;;;24.82;54.76;94612.25;4995288;28;20042;-60
2022/09/02 03:12:02;;;;;;;4.45;3.35;;;;;;;24.80;55.24;94607.84;4993865;28;20134;-62
2022/09/02 03:14:29;;;;;;;3.72;3.33;;;;;;;24.82;55.01;94612.25;4992575;28;20037;-61
2022/09/02 03:16:55;;;;;;;3.55;3.22;;;;;;;24.77;55.37;94595.25;4992674;28;20069;-62
2022/09/02 03:19:21;;;;;;;4.28;3.25;;;;;;;24.91;55.12;94620.03;4992860;28;20537;-61
2022/09/02 03:21:46;;;;;;;5.50;3.70;;;;;;;24.56;55.05;94556.25;4994852;28;20037;-61
2022/09/02 03:24:12;;;;;;;5.57;3.70;;;;;;;24.79;54.88;94579.09;4991472;28;20747;-61
2022/09/02 03:26:40;;;;;;;4.88;3.58;;;;;;;24.71;55.29;94572.78;4992989;28;20076;-61
2022/09/02 03:29:06;;;;;;;5.05;4.10;;;;;;;24.68;55.77;94582.03;4993365;28;20045;-61
2022/09/02 03:31:31;;;;;;;5.50;4.18;;;;;;;24.85;55.90;94618.69;4993172;28;20116;-62
2022/09/02 03:33:57;;;;;;;5.53;4.50;;;;;;;24.88;55.67;94615.63;4993690;28;20580;-62
2022/09/02 03:36:28;;;;;;;5.60;4.40;;;;;;;24.92;55.87;94626.97;4993490;28;20036;-61
2022/09/02 03:38:54;;;;;;;6.00;4.75;;;;;;;24.92;55.96;94621.50;4992294;28;20705;-66
2022/09/02 03:41:20;;;;;;;5.00;4.50;;;;;;;24.88;55.76;94626.53;4992875;28;20046;-62
2022/09/02 03:43:46;;;;;;;6.32;4.65;;;;;;;24.86;55.93;94628.34;4994201;28;20059;-62
2022/09/02 03:46:12;;;;;;;5.95;4.47;;;;;;;24.29;56.36;94564.94;4991504;28;20060;-63
2022/09/02 03:48:39;;;;;;;6.32;5.10;;;;;;;24.77;55.98;94636.22;5002770;28;20046;-63
2022/09/02 03:51:05;;;;;;;5.35;4.75;;;;;;;24.81;56.07;94642.84;5023319;28;20044;-67
2022/09/02 03:53:30;;;;;;;8.65;5.38;;;;;;;24.91;56.00;94649.34;5024139;28;20122;-63
2022/09/02 03:55:56;;;;;;;7.60;5.30;;;;;;;24.47;56.40;94608.56;5015462;28;20049;-62
2022/09/02 03:58:22;;;;;;;6.32;4.97;;;;;;;24.00;56.34;94542.19;5035365;28;20113;-63
2022/09/02 04:00:54;;;;;;;7.28;5.22;;;;;;;24.61;56.72;94664.59;5026432;28;20065;-64
2022/09/02 04:03:19;;;;;;;6.88;5.07;;;;;;;23.92;57.10;94571.34;5014481;28;20037;-63
2022/09/02 04:05:49;;;;;;;6.10;5.50;;;;;;;24.37;56.57;94615.69;5024040;28;20067;-62
2022/09/02 04:08:15;;;;;;;9.25;5.65;;;;;;;24.50;56.63;94648.44;5042923;23;20041;-80
2022/09/02 04:10:41;;;;;;;6.68;5.18;;;;;;;24.52;56.65;94640.47;4971945;28;20049;-82
2022/09/02 04:13:07;;;;;;;7.30;5.43;;;;;;;24.66;56.69;94658.28;4991118;28;20107;-80
2022/09/02 04:15:33;;;;;;;7.05;5.40;;;;;;;24.61;56.62;94664.59;4977515;28;20041;-81
2022/09/02 04:17:58;;;;;;;6.85;5.38;;;;;;;24.15;56.46;94594.22;4968340;28;20049;-80
2022/09/02 04:20:24;;;;;;;8.68;5.63;;;;;;;24.11;56.60;94585.63;4976576;28;20046;-81
2022/09/02 04:22:49;;;;;;;6.43;5.55;;;;;;;24.21;56.49;94607.78;4989006;28;20065;-81
2022/09/02 04:25:15;;;;;;;6.57;5.45;;;;;;;24.30;56.43;94654.47;4974208;28;20459;-82
2022/09/02 04:27:40;;;;;;;6.80;5.55;;;;;;;24.61;57.12;94689.19;4977387;28;20028;-81
2022/09/02 04:30:06;;;;;;;6.97;5.72;;;;;;;24.67;56.66;94684.34;4975726;28;20509;-83
2022/09/02 04:32:32;;;;;;;6.95;6.20;;;;;;;24.06;57.06;94589.19;4965217;28;20472;-81
2022/09/02 04:34:58;;;;;;;7.15;5.80;;;;;;;24.42;57.16;94688.53;4990255;28;20124;-81
2022/09/02 04:37:24;;;;;;;7.38;6.25;;;;;;;24.63;57.23;94697.56;4978624;28;21498;-81
2022/09/02 04:39:49;;;;;;;5.90;5.30;;;;;;;24.10;57.50;94652.34;4998428;28;20040;-84
2022/09/02 04:42:20;;;;;;;7.03;5.68;;;;;;;24.60;57.12;94693.16;4986346;28;20048;-84
2022/09/02 04:44:45;;;;;;;6.93;5.38;;;;;;;24.39;57.21;94678.66;4980657;28;20026;-80
2022/09/02 04:47:11;;;;;;;7.63;6.00;;;;;;;24.52;57.49;94703.25;4984555;28;20053;-82
2022/09/02 04:49:36;;;;;;;6.25;5.50;;;;;;;24.36;57.26;94679.69;5003313;28;20037;-81
2022/09/02 04:52:02;;;;;;;8.85;5.65;;;;;;;23.70;57.05;94583.91;4985582;28;20083;-81
2022/09/02 04:54:28;;;;;;;6.80;6.03;;;;;;;24.44;57.42;94686.03;4985235;28;20045;-81
2022/09/02 04:56:53;;;;;;;7.70;5.28;;;;;;;23.94;57.71;94625.38;4992768;28;20084;-80
2022/09/02 04:59:20;;;;;;;8.93;6.85;;;;;;;24.30;57.21;94676.31;4978628;28;20121;-80
2022/09/02 05:01:45;;;;;;;7.72;6.07;;;;;;;23.08;57.34;94517.25;4998212;28;20060;-81
2022/09/02 05:04:11;;;;;;;7.25;5.90;;;;;;;24.28;57.33;94678.84;4991705;28;20026;-80
2022/09/02 05:06:38;;;;;;;7.10;6.40;;;;;;;24.07;57.16;94633.59;4989619;28;20021;-82
2022/09/02 05:09:04;;;;;;;7.03;6.13;;;;;;;24.20;57.52;94656.16;4978737;28;20577;-83
2022/09/02 05:11:30;;;;;;;9.38;6.75;;;;;;;24.49;57.28;94707.03;4999087;28;20042;-81
2022/09/02 05:13:58;;;;;;;10.02;6.90;;;;;;;23.42;57.56;94543.47;4974586;28;20050;-82
2022/09/02 05:16:25;;;;;;;8.00;6.65;;;;;;;24.51;57.44;94707.22;4962081;28;20033;-80
2022/09/02 05:18:51;;;;;;;8.43;6.65;;;;;;;24.34;58.03;94706.78;4978550;28;20252;-81
2022/09/02 05:21:17;;;;;;;7.65;6.50;;;;;;;24.15;57.56;94686.97;4967408;28;20472;-81
2022/09/02 05:23:42;;;;;;;8.23;6.80;;;;;;;24.28;57.73;94689.75;4985105;28;20514;-82
2022/09/02 05:26:09;;;;;;;8.18;6.60;;;;;;;24.00;57.78;94642.38;4966758;28;20061;-82
2022/09/02 05:28:35;;;;;;;8.20;6.03;;;;;;;24.09;57.26;94639.25;4977423;28;20068;-81
2022/09/02 05:31:09;;;;;;;10.40;6.25;;;;;;;24.78;57.57;94719.63;4977511;28;20889;-83
2022/09/02 05:33:37;;;;;;;8.32;5.90;;;;;;;24.83;57.56;94723.00;4989717;28;20068;-81
2022/09/02 05:36:03;;;;;;;6.63;5.85;;;;;;;24.71;57.21;94698.41;4977642;28;20113;-82
2022/09/02 05:38:29;;;;;;;9.60;5.95;;;;;;;24.72;57.08;94686.22;4983338;28;20046;-85
2022/09/02 05:40:55;;;;;;;7.47;5.57;;;;;;;23.08;56.92;94441.00;4996726;28;20048;-83
2022/09/02 05:43:21;;;;;;;7.28;5.95;;;;;;;24.78;56.58;94670.47;4977635;28;20176;-83
2022/09/02 05:45:47;;;;;;;10.82;6.82;;;;;;;24.83;55.84;94646.50;4982496;28;20020;-85
2022/09/02 05:50:58;;;;;;;7.45;5.60;;;;;;;25.43;55.80;94702.66;4998823;28;20040;-84
2022/09/02 05:53:25;;;;;;;7.43;5.40;;;;;;;25.56;55.51;94710.06;4975037;28;20041;-81
2022/09/02 05:55:51;;;;;;;6.57;5.50;;;;;;;25.56;55.38;94707.34;4977168;28;20048;-81
2022/09/02 05:58:17;;;;;;;6.60;5.03;;;;;;;25.61;55.05;94706.50;4974317;28;20422;-83
2022/09/02 06:00:43;;;;;;;7.80;5.45;;;;;;;24.94;54.76;94608.03;4980520;28;20116;-81
2022/09/02 06:03:08;;;;;;;6.32;5.18;;;;;;;25.06;54.25;94609.28;4982770;28;20076;-84
2022/09/02 06:05:37;;;;;;;6.68;5.13;;;;;;;24.92;54.33;94637.88;4986020;28;20038;-83
2022/09/02 06:08:02;;;;;;;6.40;4.72;;;;;;;25.71;53.90;94693.84;4990251;28;20053;-86
2022/09/02 06:10:28;;;;;;;8.13;5.38;;;;;;;23.78;53.79;94396.63;4996919;28;20335;-83
2022/09/02 06:12:54;;;;;;;5.38;4.80;;;;;;;25.90;53.09;94712.31;4990227;28;20053;-83
2022/09/02 06:15:19;;;;;;;5.38;4.80;;;;;;;25.95;53.54;94697.75;4980771;28;20439;-82
2022/09/02 06:17:45;;;;;;;7.75;5.10;;;;;;;25.67;52.97;94644.22;4981140;28;20046;-81
2022/09/02 06:20:11;;;;;;;6.97;4.68;;;;;;;26.04;53.28;94689.06;4989621;28;20551;-82
2022/09/02 06:22:37;;;;;;;8.82;5.20;;;;;;;25.78;53.22;94660.38;4970533;28;20064;-82
2022/09/02 06:25:02;;;;;;;6.47;4.82;;;;;;;25.23;52.96;94573.41;4990027;28;20467;-84
2022/09/02 06:27:28;;;;;;;7.45;5.63;;;;;;;25.80;52.55;94664.78;4977957;28;20053;-84
2022/09/02 06:29:54;;;;;;;7.00;5.03;;;;;;;25.15;52.85;94567.84;4975010;28;20529;-85
2022/09/02 06:32:19;;;;;;;7.57;5.65;;;;;;;26.30;52.90;94710.84;4987069;28;20044;-82
2022/09/02 06:34:45;;;;;;;6.13;4.72;;;;;;;26.25;52.68;94689.81;4992424;28;20124;-83
2022/09/02 06:37:10;;;;;;;8.27;5.53;;;;;;;26.09;53.04;94685.47;4976373;28;20026;-83
2022/09/02 06:39:37;;;;;;;6.88;5.28;;;;;;;26.24;52.86;94718.44;4986492;28;20029;-82
2022/09/02 06:42:03;;;;;;;7.00;5.47;;;;;;;26.34;52.87;94722.22;4974440;28;20038;-84
2022/09/02 06:44:28;;;;;;;8.07;5.60;;;;;;;26.41;52.02;94710.56;4973525;28;20046;-84
2022/09/02 06:46:56;;;;;;;7.43;5.20;;;;;;;26.39;52.31;94724.78;4994165;28;20072;-82
2022/09/02 06:49:22;;;;;;;6.45;5.47;;;;;;;26.35;51.73;94718.94;4978361;28;20184;-84
2022/09/02 06:51:48;;;;;;;5.85;5.25;;;;;;;26.16;52.00;94701.22;4994169;28;20021;-83
2022/09/02 06:54:16;;;;;;;5.55;5.05;;;;;;;26.41;51.54;94699.59;4980157;28;20148;-84
2022/09/02 06:56:42;;;;;;;6.80;5.85;;;;;;;26.14;51.92;94667.44;4976815;28;20050;-84
2022/09/02 06:59:08;;;;;;;8.32;5.80;;;;;;;26.19;51.54;94648.16;4979591;28;20045;-95
2022/09/02 07:01:34;;;;;;;8.15;5.30;;;;;;;26.49;51.92;94719.59;4974747;28;20048;-82
2022/09/02 07:06:46;;;;;;;6.75;5.20;;;;;;;26.62;51.13;94714.00;5009240;28;20099;-83
2022/09/02 07:09:14;;;;;;;6.53;4.95;;;;;;;26.31;51.49;94695.91;4984420;28;20143;-82
2022/09/02 07:11:39;;;;;;;7.05;5.45;;;;;;;26.62;51.17;94724.97;4992946;28;20052;-84
2022/09/02 07:14:05;;;;;;;5.82;5.22;;;;;;;26.82;50.92;94750.31;4974898;28;20058;-83
2022/09/02 07:16:33;;;;;;;7.70;6.00;;;;;;;26.68;51.57;94728.28;4984316;28;20048;-82
2022/09/02 07:19:00;;;;;;;7.05;5.72;;;;;;;26.80;51.60;94747.38;4967319;28;20022;-83
2022/09/02 07:21:27;;;;;;;5.70;4.88;;;;;;;26.17;50.82;94636.97;5000631;28;20045;-82
2022/09/02 07:23:54;;;;;;;7.50;5.25;;;;;;;26.75;50.91;94711.19;4976867;28;20033;-84
2022/09/02 07:26:20;;;;;;;7.82;5.78;;;;;;;27.06;51.60;94758.19;4978897;28;20132;-82
2022/09/02 07:28:46;;;;;;;8.55;6.35;;;;;;;26.76;51.20;94716.84;4977856;28;20127;-83
2022/09/02 07:31:13;;;;;;;6.50;5.80;;;;;;;26.18;51.78;94643.22;4977567;28;20083;-83
2022/09/02 07:33:39;;;;;;;7.95;5.65;;;;;;;26.90;52.06;94740.16;4991559;28;20121;-87
2022/09/02 07:36:05;;;;;;;7.47;6.10;;;;;;;26.90;51.71;94740.16;4973798;28;20396;-83
2022/09/02 07:38:32;;;;;;;8.55;5.75;;;;;;;26.10;51.52;94632.19;4987243;28;20104;-83
2022/09/02 07:40:58;;;;;;;7.05;5.55;;;;;;;26.49;51.19;94664.81;4971991;28;20419;-83
2022/09/02 07:43:25;;;;;;;6.75;5.53;;;;;;;27.03;51.51;94753.03;4978929;28;20036;-85
2022/09/02 07:45:54;;;;;;;5.93;5.03;;;;;;;26.75;51.57;94722.13;4972364;28;20103;-84
2022/09/02 07:48:20;;;;;;;9.35;5.38;;;;;;;26.82;51.06;94719.44;5005241;28;20591;-83
2022/09/02 07:50:46;;;;;;;7.85;4.85;;;;;;;26.76;51.00;94727.09;4975566;28;20037;-83
2022/09/02 07:53:12;;;;;;;16.40;5.75;;;;;;;27.14;50.11;94747.25;4978373;28;20040;-82
2022/09/02 07:55:39;;;;;;;8.23;4.80;;;;;;;27.03;50.26;94731.84;4978927;28;20041;-84
2022/09/02 07:58:05;;;;;;;5.57;4.82;;;;;;;27.34;50.06;94758.16;4981736;28;20108;-82
2022/09/02 08:00:31;;;;;;;5.78;4.90;;;;;;;27.31;49.56;94764.72;4998509;28;20021;-82
2022/09/02 08:02:56;;;;;;;5.05;4.55;;;;;;;25.63;49.97;94550.81;4996386;28;20072;-81
2022/09/02 08:05:22;;;;;;;6.80;5.22;;;;;;;27.17;49.90;94752.38;4983639;28;20488;-84
2022/09/02 08:07:48;;;;;;;5.78;5.10;;;;;;;26.98;50.01;94751.91;4983415;28;20081;-86
2022/09/02 08:10:14;;;;;;;5.55;4.63;;;;;;;27.24;49.57;94790.09;4980318;28;20448;-85
2022/09/02 08:12:40;;;;;;;6.45;4.60;;;;;;;27.27;49.45;94761.59;4998600;28;20048;-82
2022/09/02 08:15:06;;;;;;;5.90;4.75;;;;;;;27.03;49.90;94753.78;5002228;28;20508;-81
2022/09/02 08:17:32;;;;;;;6.22;4.97;;;;;;;27.28;49.68;94774.03;4975936;28;20045;-81
2022/09/02 08:20:00;;;;;;;5.85;4.78;;;;;;;27.21;49.91;94763.75;4977725;28;20065;-81
2022/09/02 08:22:30;;;;;;;6.55;4.72;;;;;;;26.61;49.48;94666.00;4985932;28;20447;-81
2022/09/02 08:24:55;;;;;;;6.03;4.93;;;;;;;27.04;49.25;94716.88;4975146;28;20026;-81
2022/09/02 08:27:21;;;;;;;6.18;4.43;;;;;;;27.09;48.93;94729.69;4987003;28;20034;-81
2022/09/02 08:29:47;;;;;;;5.55;4.68;;;;;;;26.88;49.28;94698.84;4991939;28;20038;-81
2022/09/02 08:32:12;;;;;;;6.35;4.78;;;;;;;26.95;49.40;94698.19;4990182;28;20131;-82
2022/09/02 08:34:38;;;;;;;6.65;5.43;;;;;;;27.33;49.23;94770.38;4975940;28;20156;-85
2022/09/02 08:37:05;;;;;;;5.60;4.85;;;;;;;27.44;49.61;94772.81;4976512;28;20495;-81
2022/09/02 08:39:30;;;;;;;7.20;5.07;;;;;;;27.30;49.29;94763.97;4974244;28;20456;-82
2022/09/02 08:42:00;;;;;;;6.18;5.05;;;;;;;27.48;49.14;94764.97;4988410;28;20117;-82
2022/09/02 08:44:27;;;;;;;5.80;4.65;;;;;;;27.35;49.22;94751.38;4987801;28;20037;-81
2022/09/02 08:46:55;;;;;;;6.65;5.07;;;;;;;27.16;49.11;94745.44;4990351;28;20143;-84
2022/09/02 08:50:00;;;;;;;6.72;4.80;;;;;;;27.38;49.21;94750.28;4970378;28;20821;-81
2022/09/02 08:52:36;;;;;;;7.43;5.13;;;;;;;27.04;49.27;94705.16;5001270;28;20061;-83
2022/09/02 08:55:01;;;;;;;7.07;4.75;;;;;;;27.40;48.70;94758.72;4974607;28;20511;-84
2022/09/02 08:57:27;;;;;;;6.35;4.90;;;;;;;26.88;48.88;94663.22;4973915;28;20160;-85
2022/09/02 08:59:55;;;;;;;6.20;5.15;;;;;;;27.52;49.08;94755.16;4980631;28;20055;-81
2022/09/02 09:02:45;;;;;;;6.80;5.28;;;;;;;26.39;48.25;94593.34;4981680;28;20045;-80
2022/09/02 09:05:18;;;;;;;7.10;5.32;;;;;;;27.55;48.31;94753.31;4999551;28;20536;-81
2022/09/02 09:07:53;;;;;;;5.65;4.75;;;;;;;27.37;48.59;94748.84;5012757;28;20056;-82
2022/09/02 09:10:27;;;;;;;8.80;4.90;;;;;;;26.95;49.00;94713.88;4993426;28;20044;-84
2022/09/02 09:12:55;;;;;;;6.25;5.18;;;;;;;27.34;48.88;94755.41;4998239;28;20038;-81
2022/09/02 09:15:24;;;;;;;7.95;5.50;;;;;;;27.15;49.26;94743.97;5007341;28;20049;-80
2022/09/02 09:17:58;;;;;;;7.17;5.63;;;;;;;27.11;48.82;94718.91;4994516;28;20117;-80
2022/09/02 09:20:25;;;;;;;6.75;5.43;;;;;;;26.65;49.67;94685.53;4993220;28;20061;-84
2022/09/02 09:22:55;;;;;;;6.75;5.40;;;;;;;27.13;49.38;94754.75;4983279;28;20038;-81
2022/09/02 09:25:21;;;;;;;7.95;5.93;;;;;;;26.63;49.82;94688.09;4968428;28;20033;-81
2022/09/02 09:27:48;;;;;;;6.85;5.47;;;;;;;26.89;49.72;94721.50;4982246;28;20140;-80
2022/09/02 09:30:13;;;;;;;6.85;5.20;;;;;;;27.04;50.01;94738.78;5003050;28;20065;-82
2022/09/02 09:32:47;;;;;;;7.35;5.63;;;;;;;26.69;50.32;94703.09;4970203;28;20042;-81
2022/09/02 09:35:16;;;;;;;7.18;5.90;;;;;;;25.90;50.52;94613.81;4967240;28;20056;-80
2022/09/02 09:37:45;;;;;;;8.13;6.38;;;;;;;26.69;50.54;94724.28;4988536;28;20100;-79
2022/09/02 09:40:22;;;;;;;11.52;6.78;;;;;;;26.93;50.83;94739.06;4970607;28;20108;-80
2022/09/02 09:42:55;;;;;;;9.55;6.10;;;;;;;26.89;50.56;94737.97;4993509;28;20029;-81
2022/09/02 09:45:31;;;;;;;8.10;6.20;;;;;;;26.74;50.69;94748.81;5003145;28;20069;-82
2022/09/02 09:48:15;;;;;;;8.35;5.85;;;;;;;26.65;51.29;94730.13;4989430;28;20050;-80
2022/09/02 09:50:47;;;;;;;7.97;6.38;;;;;;;25.63;51.31;94578.16;4993359;28;20064;-80
2022/09/02 09:53:20;;;;;;;11.55;6.60;;;;;;;26.72;51.20;94734.91;4968302;28;20077;-80
2022/09/02 09:55:49;;;;;;;7.75;6.57;;;;;;;25.50;51.46;94578.22;4970178;28;20045;-81
2022/09/02 09:58:14;;;;;;;9.45;6.47;;;;;;;26.06;50.72;94647.50;5004936;28;20029;-85
2022/09/02 10:00:40;;;;;;;14.07;7.38;;;;;;;25.78;50.71;94611.13;4972443;28;20033;-79
2022/09/02 10:03:07;;;;;;;9.57;6.65;;;;;;;26.53;50.75;94737.16;4987942;28;20041;-81
2022/09/02 10:05:37;;;;;;;7.50;6.65;;;;;;;26.52;50.96;94738.41;4976717;28;20041;-81
2022/09/02 10:08:27;;;;;;;8.68;6.82;;;;;;;26.41;51.03;94727.00;4976679;28;20049;-83
2022/09/02 10:10:58;;;;;;;8.23;7.10;;;;;;;26.57;50.62;94755.97;4965708;28;20038;-82
2022/09/02 10:13:29;;;;;;;10.40;7.47;;;;;;;24.56;50.72;94463.44;4996252;28;20033;-82
2022/09/02 10:16:12;;;;;;;11.63;8.27;;;;;;;26.33;51.54;94731.69;4981032;28;20026;-84
2022/09/02 10:18:39;;;;;;;10.88;8.55;;;;;;;26.37;51.37;94721.13;4988547;28;20041;-84
2022/09/02 10:21:11;;;;;;;11.38;7.72;;;;;;;26.49;51.68;94730.53;5001340;28;20057;-82
2022/09/02 10:23:51;;;;;;;11.38;8.40;;;;;;;26.46;51.89;94734.34;5021865;28;20103;-81
2022/09/02 10:26:39;;;;;;;10.45;7.82;;;;;;;26.30;51.92;94721.81;5018702;28;20097;-82
2022/09/02 10:29:51;;;;;;;11.25;8.23;;;;;;;26.32;51.28;94697.34;4993939;28;20067;-82
2022/09/02 10:32:19;;;;;;;10.93;7.18;;;;;;;26.56;51.28;94743.53;4965668;28;20037;-85
2022/09/02 10:35:00;;;;;;;11.45;8.02;;;;;;;25.97;51.82;94678.78;5011788;28;20565;-82
2022/09/02 10:37:30;;;;;;;10.55;7.72;;;;;;;26.24;51.61;94723.91;5010867;28;20054;-82
2022/09/02 10:40:12;;;;;;;10.35;8.35;;;;;;;26.35;51.48;94740.09;4968872;28;20029;-83
2022/09/02 10:43:01;;;;;;;11.18;8.15;;;;;;;24.80;51.75;94498.63;4991221;28;20045;-82
2022/09/02 10:45:45;;;;;;;9.90;8.15;;;;;;;25.99;51.55;94681.75;4992713;28;20052;-85
2022/09/02 10:48:37;;;;;;;11.48;8.10;;;;;;;26.34;51.69;94735.91;4968312;28;20041;-82
2022/09/02 10:51:27;;;;;;;9.07;7.90;;;;;;;26.35;52.18;94729.13;5014455;28;20534;-84
2022/09/02 10:53:59;;;;;;;11.45;8.50;;;;;;;26.42;51.52;94729.19;5000551;28;20050;-82
2022/09/02 10:56:28;;;;;;;10.80;7.90;;;;;;;26.34;52.10;94716.72;5020695;28;20042;-82
2022/09/02 10:59:06;;;;;;;12.73;8.88;;;;;;;25.17;51.55;94554.41;4989700;28;20150;-82
2022/09/02 11:01:54;;;;;;;10.75;8.73;;;;;;;26.13;52.07;94701.53;4989783;28;20053;-81
2022/09/02 11:04:39;;;;;;;10.50;8.27;;;;;;;26.39;51.79;94729.53;5000597;28;20026;-82
2022/09/02 11:07:07;;;;;;;10.45;8.85;;;;;;;26.41;51.71;94711.31;5001854;28;20030;-86
2022/09/02 11:09:49;;;;;;;10.68;8.63;;;;;;;26.38;51.68;94712.38;4978232;28;20050;-81
2022/09/02 11:12:19;;;;;;;11.57;8.77;;;;;;;25.78;51.56;94624.81;5004793;28;20038;-89
2022/09/02 11:15:06;;;;;;;10.20;8.25;;;;;;;26.46;52.00;94712.44;5014519;28;20045;-83
2022/09/02 11:17:44;;;;;;;11.02;8.38;;;;;;;24.77;51.91;94472.34;5014206;28;20117;-82
2022/09/02 11:20:37;;;;;;;11.05;8.68;;;;;;;26.51;51.88;94708.81;4996228;28;20624;-81
2022/09/02 11:23:18;;;;;;;12.88;8.90;;;;;;;26.21;51.98;94653.09;5023545;28;20044;-86
2022/09/02 11:26:09;;;;;;;10.88;8.77;;;;;;;26.35;51.89;94674.38;4994363;28;20072;-82
2022/09/02 11:28:37;;;;;;;12.32;8.63;;;;;;;26.55;52.02;94704.47;4996290;28;20042;-84
2022/09/02 11:31:26;;;;;;;13.13;8.93;;;;;;;25.80;52.15;94601.84;4996233;28;20022;-82
2022/09/02 11:34:11;;;;;;;10.13;9.03;;;;;;;25.89;52.42;94625.28;4999138;28;20034;-81
2022/09/02 11:36:38;;;;;;;12.50;9.35;;;;;;;26.42;52.25;94690.84;4974944;28;20046;-83
2022/09/02 11:39:22;;;;;;;11.40;9.38;;;;;;;26.28;51.96;94669.59;4992703;28;20054;-81
2022/09/02 11:42:23;;;;;;;12.38;9.13;;;;;;;26.49;52.48;94689.47;5006823;28;20107;-83
2022/09/02 11:44:58;;;;;;;11.13;8.65;;;;;;;25.78;52.19;94578.31;4994041;28;20042;-81